Time;durP1;ratioP1;P1;durP2;ratioP2;P2;SDS_P1;SDS_P2;PMS_P1;PMS_P2;Temp;Humidity;BMP_temperature;BMP_pressure;BME280_temperature;BME280_humidity;BME280_pressure;Samples;Min_cycle;Max_cycle;Signal;HPM_P1;HPM_P2
2022/01/31 00:01:49;;;;;;;8.90;3.00;;;22.40;54.30;;;;;;220915;1265;22553;-58
2022/01/31 00:06:54;;;;;;;8.00;2.40;;;22.30;54.40;;;;;;220822;1265;22533;-58
2022/01/31 00:12:05;;;;;;;9.80;2.40;;;22.30;55.00;;;;;;220924;1265;23847;-56
2022/01/31 00:17:10;;;;;;;6.70;2.00;;;22.20;54.10;;;;;;220980;1265;22690;-57
2022/01/31 00:22:14;;;;;;;7.30;2.70;;;22.20;54.60;;;;;;220578;1265;24230;-59
2022/01/31 00:27:17;;;;;;;10.30;2.80;;;22.20;54.30;;;;;;220832;1265;26386;-57
2022/01/31 00:32:21;;;;;;;6.40;2.00;;;22.10;54.80;;;;;;221067;1265;22475;-58
2022/01/31 00:37:25;;;;;;;6.00;2.30;;;22.00;54.40;;;;;;221012;1265;25515;-57
2022/01/31 00:42:30;;;;;;;8.80;2.30;;;22.20;54.10;;;;;;221174;1265;24377;-58
2022/01/31 00:47:34;;;;;;;7.60;2.30;;;22.60;53.20;;;;;;220974;1265;22538;-58
2022/01/31 00:52:41;;;;;;;7.90;2.50;;;22.90;52.30;;;;;;221285;1265;25324;-59
2022/01/31 00:57:44;;;;;;;5.20;2.40;;;23.10;51.70;;;;;;221094;1265;22649;-57
2022/01/31 01:02:48;;;;;;;6.40;2.00;;;23.20;51.10;;;;;;220884;1265;23810;-56
2022/01/31 01:07:52;;;;;;;9.00;2.60;;;23.40;51.00;;;;;;221016;1265;22528;-57
2022/01/31 01:12:57;;;;;;;6.20;2.40;;;23.40;50.70;;;;;;220709;1268;24407;-56
2022/01/31 01:18:06;;;;;;;10.40;2.40;;;23.50;50.40;;;;;;221075;1268;26545;-58
2022/01/31 01:23:10;;;;;;;7.10;2.40;;;23.50;50.50;;;;;;220892;1265;22691;-58
2022/01/31 01:28:19;;;;;;;8.00;2.30;;;23.50;50.40;;;;;;220608;1268;25567;-58
2022/01/31 01:33:24;;;;;;;7.20;2.40;;;23.60;49.90;;;;;;220928;1265;22547;-58
2022/01/31 01:38:29;;;;;;;7.40;2.20;;;23.60;49.90;;;;;;220724;1265;24221;-56
2022/01/31 01:43:34;;;;;;;8.80;2.30;;;23.60;49.90;;;;;;220553;1265;23066;-59
2022/01/31 01:48:38;;;;;;;6.10;2.20;;;23.70;50.30;;;;;;221006;1265;22681;-57
2022/01/31 01:53:45;;;;;;;6.80;2.40;;;23.70;49.50;;;;;;221067;1265;22549;-59
2022/01/31 01:58:49;;;;;;;8.30;2.10;;;23.70;49.60;;;;;;221083;1267;22552;-57
2022/01/31 02:03:53;;;;;;;5.60;2.30;;;23.70;49.40;;;;;;221189;1265;22585;-58
2022/01/31 02:09:02;;;;;;;7.20;2.30;;;23.80;49.30;;;;;;220958;1265;22594;-58
2022/01/31 02:14:07;;;;;;;6.50;2.20;;;23.80;49.20;;;;;;221185;1265;22559;-56
2022/01/31 02:19:30;;;;;;;7.40;2.50;;;23.80;49.20;;;;;;220994;1263;22595;-57
2022/01/31 02:24:53;;;;;;;5.20;2.30;;;23.90;49.10;;;;;;221231;1265;25260;-59
2022/01/31 02:30:15;;;;;;;6.50;1.70;;;23.90;49.20;;;;;;221119;1265;22556;-58
2022/01/31 02:35:21;;;;;;;6.00;2.30;;;23.90;49.50;;;;;;221083;1265;25505;-56
2022/01/31 02:40:24;;;;;;;8.70;2.40;;;23.90;49.90;;;;;;221068;1265;25322;-58
2022/01/31 02:45:30;;;;;;;4.50;1.70;;;23.90;49.30;;;;;;221180;1265;22522;-57
2022/01/31 02:50:35;;;;;;;4.70;2.00;;;23.90;49.10;;;;;;221087;1262;25676;-59
2022/01/31 02:55:42;;;;;;;4.90;1.80;;;23.90;49.40;;;;;;220972;1267;24235;-60
2022/01/31 03:00:46;;;;;;;6.10;2.00;;;24.00;48.70;;;;;;221047;1268;25422;-58
2022/01/31 03:05:52;;;;;;;6.00;1.80;;;24.00;48.80;;;;;;220951;1267;22547;-56
2022/01/31 03:10:56;;;;;;;5.20;2.10;;;24.00;48.70;;;;;;221296;1265;22539;-57
2022/01/31 03:16:15;;;;;;;4.40;1.80;;;24.10;48.50;;;;;;220896;1265;22652;-57
2022/01/31 03:21:38;;;;;;;5.10;2.00;;;24.10;48.70;;;;;;220945;1262;22548;-57
2022/01/31 03:26:42;;;;;;;8.40;2.10;;;24.10;48.30;;;;;;220845;1262;25253;-58
2022/01/31 03:31:46;;;;;;;6.30;1.80;;;24.10;48.60;;;;;;221238;1262;25267;-60
2022/01/31 03:36:50;;;;;;;5.40;1.90;;;24.10;48.70;;;;;;220997;1265;23951;-59
2022/01/31 03:41:56;;;;;;;4.80;2.10;;;24.10;49.10;;;;;;221167;1262;22617;-58
2022/01/31 03:46:59;;;;;;;5.20;1.70;;;24.10;49.30;;;;;;220825;1262;23913;-57
2022/01/31 03:52:04;;;;;;;4.60;1.70;;;23.90;49.50;;;;;;220633;1265;22553;-59
2022/01/31 03:57:21;;;;;;;4.90;1.50;;;23.80;49.00;;;;;;220984;1262;22594;-57
2022/01/31 04:02:28;;;;;;;4.40;1.80;;;23.70;49.60;;;;;;220830;1265;22547;-61
2022/01/31 04:07:43;;;;;;;5.50;1.90;;;23.60;49.60;;;;;;220926;1265;25500;-58
2022/01/31 04:12:52;;;;;;;6.00;1.70;;;23.50;49.80;;;;;;221275;1265;22547;-60
2022/01/31 04:17:56;;;;;;;4.20;1.70;;;23.30;50.10;;;;;;221058;1265;25271;-58
2022/01/31 04:23:05;;;;;;;4.20;1.70;;;23.20;50.30;;;;;;220846;1265;22689;-58
2022/01/31 04:28:18;;;;;;;3.60;1.60;;;23.20;51.10;;;;;;221047;1263;22587;-59
2022/01/31 04:33:24;;;;;;;5.90;1.90;;;23.10;50.80;;;;;;221072;1265;22551;-57
2022/01/31 04:38:29;;;;;;;4.70;1.70;;;22.90;50.90;;;;;;221035;1263;22537;-58
2022/01/31 04:43:33;;;;;;;4.90;1.90;;;22.90;51.30;;;;;;221022;1263;22538;-59
2022/01/31 04:48:37;;;;;;;4.30;1.80;;;22.80;51.40;;;;;;221124;1265;22570;-57
2022/01/31 04:53:41;;;;;;;4.20;1.80;;;22.70;51.50;;;;;;221093;1265;25403;-57
2022/01/31 04:58:45;;;;;;;5.60;2.20;;;22.60;52.10;;;;;;221092;1265;25260;-57
2022/01/31 05:03:49;;;;;;;4.50;1.70;;;22.50;51.70;;;;;;221391;1262;25361;-58
2022/01/31 05:08:53;;;;;;;5.80;2.00;;;22.60;52.10;;;;;;220897;1263;24231;-57
2022/01/31 05:13:56;;;;;;;4.80;1.70;;;22.50;51.60;;;;;;221076;1265;25447;-58
2022/01/31 05:19:02;;;;;;;4.50;1.70;;;22.50;52.00;;;;;;221113;1262;22594;-58
2022/01/31 05:24:06;;;;;;;3.90;2.10;;;22.40;52.10;;;;;;221263;1262;22632;-57
2022/01/31 05:29:10;;;;;;;7.30;1.70;;;22.40;51.90;;;;;;221199;1263;25613;-57
2022/01/31 05:34:14;;;;;;;5.00;1.70;;;22.70;51.50;;;;;;221121;1262;26421;-57
2022/01/31 05:39:18;;;;;;;4.30;1.90;;;22.90;50.70;;;;;;221234;1262;22541;-58
2022/01/31 05:44:23;;;;;;;5.80;1.80;;;23.20;50.50;;;;;;220562;1265;25475;-58
2022/01/31 05:49:27;;;;;;;4.70;1.90;;;23.30;50.10;;;;;;221132;1262;22670;-57
2022/01/31 05:54:32;;;;;;;5.60;1.70;;;23.40;50.20;;;;;;221032;1262;24376;-57
2022/01/31 05:59:39;;;;;;;5.20;1.80;;;23.50;50.00;;;;;;220430;1262;750373;-59
2022/01/31 06:04:43;;;;;;;3.60;1.70;;;23.50;49.50;;;;;;221264;1265;22656;-58
2022/01/31 06:09:46;;;;;;;3.70;1.80;;;23.60;49.30;;;;;;221289;1262;24318;-57
2022/01/31 06:14:50;;;;;;;4.80;1.90;;;23.60;48.90;;;;;;221104;1265;22531;-58
2022/01/31 06:19:53;;;;;;;5.20;1.80;;;23.60;48.80;;;;;;221342;1265;24826;-58
2022/01/31 06:24:59;;;;;;;5.00;1.80;;;23.70;49.10;;;;;;221058;1262;25506;-59
2022/01/31 06:30:10;;;;;;;5.60;1.70;;;23.70;48.60;;;;;;221077;1265;22728;-58
2022/01/31 06:35:14;;;;;;;4.50;1.90;;;23.70;48.70;;;;;;221007;1262;25334;-57
2022/01/31 06:40:19;;;;;;;3.60;1.50;;;23.80;48.90;;;;;;221351;1262;24221;-57
2022/01/31 06:45:23;;;;;;;5.30;2.20;;;23.80;48.50;;;;;;221332;1262;25184;-59
2022/01/31 06:50:28;;;;;;;4.30;2.20;;;23.80;48.80;;;;;;221005;1265;24467;-58
2022/01/31 06:55:34;;;;;;;5.40;2.00;;;23.80;48.30;;;;;;221043;1262;22532;-56
2022/01/31 07:00:38;;;;;;;3.30;1.70;;;23.90;48.00;;;;;;221024;1262;22535;-61
2022/01/31 07:05:45;;;;;;;5.50;1.50;;;23.90;48.10;;;;;;221221;1263;25487;-59
2022/01/31 07:10:51;;;;;;;5.40;1.70;;;24.00;48.10;;;;;;221293;1262;22528;-59
2022/01/31 07:15:56;;;;;;;4.00;1.80;;;23.90;48.10;;;;;;220944;1262;22547;-60
2022/01/31 07:21:00;;;;;;;4.80;1.40;;;24.00;48.60;;;;;;221043;1262;24193;-59
2022/01/31 07:26:05;;;;;;;5.30;1.90;;;24.00;48.60;;;;;;220817;1265;25961;-60
2022/01/31 07:31:11;;;;;;;4.70;1.70;;;24.10;48.60;;;;;;221417;1262;24218;-61
2022/01/31 07:36:17;;;;;;;5.20;1.70;;;24.10;48.20;;;;;;221202;1262;22551;-60
2022/01/31 07:41:20;;;;;;;5.20;1.60;;;24.10;48.30;;;;;;221086;1262;22562;-61
2022/01/31 07:46:25;;;;;;;7.20;2.00;;;24.10;47.90;;;;;;221052;1262;25457;-59
2022/01/31 07:51:29;;;;;;;6.90;1.80;;;24.10;48.00;;;;;;221007;1261;25256;-59
2022/01/31 07:56:34;;;;;;;4.70;1.90;;;24.20;47.60;;;;;;221054;1262;22679;-59
2022/01/31 08:01:38;;;;;;;5.00;1.80;;;24.10;47.80;;;;;;221057;1262;24301;-60
2022/01/31 08:06:41;;;;;;;6.40;1.70;;;24.00;47.90;;;;;;220892;1265;22528;-58
2022/01/31 08:11:49;;;;;;;5.10;1.80;;;23.90;48.30;;;;;;221324;1262;24221;-59
2022/01/31 08:17:05;;;;;;;9.60;2.20;;;23.80;48.30;;;;;;220734;1265;25474;-63
2022/01/31 08:22:12;;;;;;;3.90;1.60;;;23.60;48.70;;;;;;220506;1262;22678;-59
2022/01/31 08:27:17;;;;;;;9.40;2.10;;;23.50;49.60;;;;;;228709;1262;22399;-59
2022/01/31 08:32:33;;;;;;;10.20;1.80;;;23.40;50.00;;;;;;228551;1262;22395;-58
2022/01/31 08:37:44;;;;;;;4.00;1.40;;;23.30;50.50;;;;;;225107;1261;26669;-58
2022/01/31 08:43:06;;;;;;;9.10;2.00;;;23.30;50.70;;;;;;223412;1262;22725;-59
2022/01/31 08:48:09;;;;;;;9.20;2.10;;;23.30;51.10;;;;;;228599;1262;22395;-60
2022/01/31 08:53:14;;;;;;;7.30;1.40;;;23.20;50.80;;;;;;228743;1261;22451;-59
2022/01/31 08:58:18;;;;;;;6.00;1.90;;;23.10;51.10;;;;;;224227;1261;22544;-57
2022/01/31 09:03:40;;;;;;;12.50;2.40;;;23.10;51.00;;;;;;220678;1265;25331;-56
2022/01/31 09:08:44;;;;;;;5.10;1.70;;;23.00;51.30;;;;;;220968;1262;22753;-59
2022/01/31 09:13:49;;;;;;;4.90;1.90;;;22.90;51.40;;;;;;221240;1262;23015;-59
2022/01/31 09:18:56;;;;;;;4.40;1.80;;;22.90;51.60;;;;;;221060;1262;25291;-59
2022/01/31 09:24:00;;;;;;;8.20;2.40;;;22.80;51.40;;;;;;220632;1265;22581;-62
2022/01/31 09:29:04;;;;;;;5.60;1.80;;;22.70;51.40;;;;;;220524;1265;25549;-61
2022/01/31 09:34:07;;;;;;;8.30;2.50;;;22.70;51.50;;;;;;220725;1262;24610;-61
2022/01/31 09:39:11;;;;;;;7.40;2.30;;;22.50;51.60;;;;;;220936;1266;25343;-59
2022/01/31 09:45:11;;;;;;;7.70;2.30;;;22.50;51.50;;;;;;220825;1262;25330;-59
2022/01/31 09:49:41;;;;;;;10.10;2.60;;;22.50;51.80;;;;;;220878;1262;22572;-61
2022/01/31 09:54:50;;;;;;;8.00;2.70;;;22.40;51.30;;;;;;220958;1262;25380;-60
2022/01/31 09:59:53;;;;;;;6.60;2.50;;;22.40;50.80;;;;;;221082;1262;24246;-59
2022/01/31 10:04:57;;;;;;;10.20;2.60;;;22.30;51.00;;;;;;220849;1262;22807;-60
2022/01/31 10:10:17;;;;;;;6.50;2.30;;;22.20;51.00;;;;;;220721;1262;24433;-60
2022/01/31 10:20:53;;;;;;;5.30;2.20;;;22.20;50.60;;;;;;220875;1262;22623;-55
2022/01/31 10:26:04;;;;;;;10.30;3.20;;;22.50;49.50;;;;;;220881;1263;22653;-54
2022/01/31 10:31:21;;;;;;;9.50;2.90;;;22.80;49.10;;;;;;221245;1262;25439;-55
2022/01/31 10:36:25;;;;;;;6.40;3.10;;;23.00;48.50;;;;;;220822;1262;22694;-59
2022/01/31 10:52:14;;;;;;;15.90;3.60;;;23.40;47.10;;;;;;221049;1262;22564;-60
2022/01/31 10:57:21;;;;;;;19.20;4.10;;;23.50;46.70;;;;;;220908;1262;22554;-60
2022/01/31 11:02:29;;;;;;;14.30;4.40;;;23.60;46.70;;;;;;221050;1262;25325;-61
2022/01/31 11:07:35;;;;;;;18.90;5.00;;;23.50;47.30;;;;;;220812;1265;25383;-59
2022/01/31 11:12:40;;;;;;;20.40;4.70;;;23.70;46.80;;;;;;221295;1263;23433;-58
2022/01/31 11:17:47;;;;;;;21.30;5.30;;;23.70;46.90;;;;;;220494;1265;24415;-60
2022/01/31 11:22:57;;;;;;;21.50;5.10;;;23.80;46.10;;;;;;221065;1262;22612;-60
2022/01/31 11:28:05;;;;;;;24.00;5.00;;;23.80;46.10;;;;;;220993;1265;24401;-60
2022/01/31 11:33:10;;;;;;;24.10;5.10;;;23.80;45.60;;;;;;221162;1262;26499;-61
2022/01/31 11:38:15;;;;;;;20.50;5.90;;;23.60;45.90;;;;;;221195;1262;22535;-58
2022/01/31 11:43:21;;;;;;;25.60;5.90;;;23.60;47.10;;;;;;221274;1262;24302;-60
2022/01/31 11:48:29;;;;;;;29.80;5.70;;;23.50;47.00;;;;;;221353;1262;22544;-55
2022/01/31 11:53:35;;;;;;;18.00;5.70;;;23.20;47.10;;;;;;221120;1262;22670;-52
2022/01/31 11:58:53;;;;;;;18.40;5.40;;;23.20;48.60;;;;;;221213;1262;25230;-57
2022/01/31 12:03:59;;;;;;;20.30;4.80;;;23.00;49.60;;;;;;220942;1261;25796;-54
2022/01/31 12:09:17;;;;;;;24.50;5.20;;;22.90;50.60;;;;;;221100;1262;22781;-55
2022/01/31 12:14:28;;;;;;;15.10;5.20;;;22.80;50.50;;;;;;221257;1262;25565;-55
2022/01/31 12:24:44;;;;;;;;;;;22.80;50.00;;;;;;221167;1262;22599;-56
2022/01/31 12:29:59;;;;;;;18.70;5.50;;;22.70;50.10;;;;;;221227;1262;22695;-53
2022/01/31 12:35:05;;;;;;;13.80;3.90;;;22.70;50.10;;;;;;220964;1262;25313;-55
2022/01/31 12:40:30;;;;;;;16.30;5.00;;;22.70;50.20;;;;;;221121;1263;25391;-53
2022/01/31 12:45:38;;;;;;;16.20;4.50;;;22.70;50.10;;;;;;221233;1262;25438;-55
2022/01/31 12:50:58;;;;;;;13.30;4.80;;;22.60;50.20;;;;;;221002;1262;26900;-55
2022/01/31 12:56:25;;;;;;;16.50;4.80;;;22.50;49.80;;;;;;221018;1262;22556;-52
2022/01/31 13:01:42;;;;;;;13.30;4.40;;;22.40;49.80;;;;;;221049;1262;24247;-55
2022/01/31 13:06:54;;;;;;;15.30;4.50;;;22.40;49.90;;;;;;220989;1262;22553;-57
2022/01/31 13:12:14;;;;;;;12.90;4.50;;;22.40;49.50;;;;;;221117;1262;24280;-55
2022/01/31 13:17:26;;;;;;;14.20;4.10;;;22.30;49.40;;;;;;221173;1262;23183;-54
2022/01/31 13:22:42;;;;;;;13.80;4.70;;;22.40;49.10;;;;;;221225;1262;22537;-56
2022/01/31 13:27:47;;;;;;;12.90;4.40;;;22.30;49.10;;;;;;221056;1262;22604;-58
2022/01/31 13:33:05;;;;;;;13.30;4.90;;;22.30;49.30;;;;;;221115;1262;22547;-56
2022/01/31 13:38:21;;;;;;;15.50;4.40;;;22.20;48.80;;;;;;221240;1265;24599;-57
2022/01/31 13:43:33;;;;;;;11.20;4.20;;;22.30;48.80;;;;;;221269;1262;22563;-55
2022/01/31 13:48:57;;;;;;;16.60;4.90;;;22.30;48.70;;;;;;221384;1262;22534;-57
2022/01/31 13:54:08;;;;;;;13.50;4.60;;;22.30;48.50;;;;;;221377;1262;22680;-53
2022/01/31 13:59:15;;;;;;;15.20;4.50;;;22.30;48.50;;;;;;221119;1262;24996;-56
2022/01/31 14:04:43;;;;;;;15.70;5.40;;;22.60;47.90;;;;;;220890;1262;24296;-58
2022/01/31 14:09:53;;;;;;;8.80;4.30;;;22.90;47.90;;;;;;221026;1262;22685;-52
2022/01/31 14:15:04;;;;;;;14.00;4.80;;;23.20;47.30;;;;;;221084;1262;22550;-57
2022/01/31 14:20:12;;;;;;;12.30;4.40;;;23.30;46.50;;;;;;221109;1265;23954;-58
2022/01/31 14:25:18;;;;;;;10.00;4.70;;;23.40;46.50;;;;;;221220;1262;22615;-57
2022/01/31 14:30:24;;;;;;;10.70;4.50;;;23.50;46.00;;;;;;220626;1265;22662;-60
2022/01/31 14:35:28;;;;;;;10.10;4.60;;;23.50;45.90;;;;;;221179;1262;24254;-59
2022/01/31 14:51:32;;;;;;;15.90;4.70;;;23.60;45.70;;;;;;221390;1265;22536;-59
2022/01/31 14:56:43;;;;;;;10.80;4.90;;;23.70;45.50;;;;;;221341;1262;22529;-58
2022/01/31 15:02:05;;;;;;;10.80;4.80;;;23.80;45.90;;;;;;220753;1265;25582;-55
2022/01/31 15:07:29;;;;;;;11.70;4.90;;;23.90;46.00;;;;;;221302;1262;25569;-59
2022/01/31 15:12:41;;;;;;;14.90;5.30;;;24.00;46.10;;;;;;221127;1265;22548;-60
2022/01/31 15:17:50;;;;;;;12.30;5.20;;;23.90;46.50;;;;;;221117;1262;25535;-62
2022/01/31 15:22:56;;;;;;;16.80;7.20;;;24.00;46.50;;;;;;221164;1265;26612;-59
2022/01/31 15:28:05;;;;;;;18.50;6.90;;;23.90;47.00;;;;;;221342;1265;25572;-61
2022/01/31 15:33:11;;;;;;;18.00;7.40;;;23.90;47.10;;;;;;221251;1265;22534;-61
2022/01/31 15:38:36;;;;;;;16.80;8.00;;;23.80;47.60;;;;;;220350;1265;24233;-62
2022/01/31 15:43:57;;;;;;;24.50;9.90;;;23.60;47.60;;;;;;221167;1262;22551;-61
2022/01/31 15:49:10;;;;;;;22.10;10.30;;;23.50;47.20;;;;;;221091;1262;24290;-60
2022/01/31 15:54:24;;;;;;;22.60;10.40;;;23.30;47.40;;;;;;221122;1262;24254;-62
2022/01/31 15:59:31;;;;;;;22.20;10.10;;;23.30;47.00;;;;;;221199;1263;25320;-61
2022/01/31 16:04:47;;;;;;;19.80;11.00;;;23.20;47.50;;;;;;221188;1265;26841;-59
2022/01/31 16:09:58;;;;;;;22.10;11.00;;;23.10;47.30;;;;;;221004;1262;25426;-60
2022/01/31 16:15:07;;;;;;;23.30;12.10;;;23.00;49.10;;;;;;221257;1262;25238;-60
2022/01/31 16:20:32;;;;;;;29.60;14.50;;;23.00;49.10;;;;;;221054;1263;22570;-59
2022/01/31 16:25:44;;;;;;;33.70;15.10;;;22.90;48.50;;;;;;221126;1265;25553;-56
2022/01/31 16:31:08;;;;;;;34.70;23.20;;;22.80;50.50;;;;;;220881;1266;22666;-54
2022/01/31 16:36:13;;;;;;;36.00;20.20;;;22.70;53.10;;;;;;221140;1262;22529;-59
2022/01/31 16:41:17;;;;;;;32.00;19.80;;;22.60;54.50;;;;;;220992;1262;24341;-57
2022/01/31 16:46:24;;;;;;;36.20;20.10;;;22.60;54.90;;;;;;221345;1266;22564;-57
2022/01/31 16:51:28;;;;;;;29.40;17.70;;;22.50;54.60;;;;;;221263;1262;22531;-57
2022/01/31 16:56:32;;;;;;;32.40;18.60;;;22.50;54.50;;;;;;221324;1265;24290;-58
2022/01/31 17:01:35;;;;;;;31.90;17.50;;;22.40;54.10;;;;;;221095;1265;22531;-55
2022/01/31 17:06:43;;;;;;;31.50;18.00;;;22.50;54.40;;;;;;221202;1262;22688;-56
2022/01/31 17:11:47;;;;;;;39.60;17.80;;;22.40;54.60;;;;;;221411;1264;22757;-59
2022/01/31 17:16:55;;;;;;;32.10;18.30;;;22.30;54.90;;;;;;221133;1265;25254;-56
2022/01/31 17:21:58;;;;;;;35.50;17.80;;;22.30;55.00;;;;;;221044;1262;25321;-53
2022/01/31 17:27:04;;;;;;;30.00;16.50;;;22.20;55.50;;;;;;221291;1265;25311;-56
2022/01/31 17:32:10;;;;;;;33.70;16.70;;;22.20;55.20;;;;;;220549;1265;22678;-58
2022/01/31 17:37:19;;;;;;;31.90;17.70;;;22.20;55.80;;;;;;220674;1265;22568;-56
2022/01/31 17:42:30;;;;;;;25.80;16.20;;;22.20;55.80;;;;;;221116;1266;22713;-56
2022/01/31 17:47:36;;;;;;;31.50;16.60;;;22.20;55.90;;;;;;221109;1263;24290;-54
2022/01/31 17:52:40;;;;;;;32.30;17.00;;;22.10;55.90;;;;;;221108;1265;24373;-56
2022/01/31 17:57:44;;;;;;;32.60;16.60;;;22.10;55.90;;;;;;221027;1265;22771;-58
2022/01/31 18:02:49;;;;;;;29.30;16.60;;;22.10;56.20;;;;;;220901;1262;194220;-56
2022/01/31 18:07:53;;;;;;;26.70;15.80;;;22.10;56.30;;;;;;220956;1265;22535;-58
2022/01/31 18:13:10;;;;;;;31.30;17.20;;;22.00;56.30;;;;;;220956;1265;22800;-59
2022/01/31 18:18:14;;;;;;;25.50;14.50;;;22.00;56.50;;;;;;221129;1268;25585;-58
2022/01/31 18:23:32;;;;;;;24.10;13.70;;;22.00;59.60;;;;;;220227;1265;22544;-57
2022/01/31 18:28:39;;;;;;;29.60;15.60;;;22.10;58.20;;;;;;220930;1265;25335;-59
2022/01/31 18:33:44;;;;;;;24.70;13.50;;;22.30;61.50;;;;;;220980;1265;22585;-63
2022/01/31 18:38:48;;;;;;;29.00;15.40;;;22.40;59.60;;;;;;220189;1263;22783;-63
2022/01/31 18:44:10;;;;;;;34.50;23.10;;;22.60;61.60;;;;;;221014;1265;22687;-62
2022/01/31 18:49:22;;;;;;;40.00;25.90;;;22.90;59.10;;;;;;220380;1265;22538;-62
2022/01/31 18:54:28;;;;;;;37.20;24.90;;;22.90;57.40;;;;;;220982;1266;25388;-62
2022/01/31 18:59:57;;;;;;;39.30;24.10;;;23.00;57.10;;;;;;221311;1265;23776;-62
2022/01/31 19:05:02;;;;;;;50.70;34.90;;;23.00;56.90;;;;;;221097;1266;22573;-60
2022/01/31 19:10:25;;;;;;;42.20;26.00;;;23.00;56.00;;;;;;220106;1265;24734;-56
2022/01/31 19:15:42;;;;;;;45.10;30.10;;;23.00;55.60;;;;;;220345;1265;22556;-57
2022/01/31 19:20:55;;;;;;;44.30;27.90;;;23.00;55.80;;;;;;221148;1265;25441;-57
2022/01/31 19:26:08;;;;;;;40.10;25.40;;;23.00;56.30;;;;;;220978;1265;25525;-55
2022/01/31 19:31:35;;;;;;;34.40;22.90;;;22.70;56.10;;;;;;220768;1265;25469;-57
2022/01/31 19:36:39;;;;;;;35.40;21.30;;;22.60;56.60;;;;;;221278;1265;25341;-58
2022/01/31 19:47:11;;;;;;;36.20;20.60;;;22.50;57.60;;;;;;220820;1265;22774;-57
2022/01/31 19:52:25;;;;;;;33.10;19.10;;;22.50;58.50;;;;;;221085;1265;22595;-53
2022/01/31 19:57:37;;;;;;;33.50;18.80;;;22.60;58.90;;;;;;221181;1265;25664;-56
2022/01/31 20:02:44;;;;;;;35.80;18.00;;;22.60;59.30;;;;;;221344;1267;22591;-57
2022/01/31 20:08:02;;;;;;;32.20;18.10;;;22.40;59.50;;;;;;221111;1267;25255;-58
2022/01/31 20:13:22;;;;;;;30.40;18.00;;;22.40;60.00;;;;;;221158;1265;25430;-57
2022/01/31 20:18:33;;;;;;;31.80;17.60;;;22.40;60.20;;;;;;221300;1267;22570;-56
2022/01/31 20:23:46;;;;;;;31.80;17.10;;;22.30;61.00;;;;;;221061;1267;24210;-58
2022/01/31 20:28:52;;;;;;;31.50;17.20;;;22.30;60.70;;;;;;221216;1265;22531;-54
2022/01/31 20:34:28;;;;;;;32.50;17.10;;;22.20;60.40;;;;;;220959;1265;22550;-55
2022/01/31 20:40:00;;;;;;;34.60;18.10;;;22.20;60.70;;;;;;221060;1265;22614;-53
2022/01/31 20:45:04;;;;;;;41.70;18.00;;;22.20;62.80;;;;;;220516;1265;26681;-56
2022/01/31 20:50:13;;;;;;;59.90;17.60;;;22.20;61.40;;;;;;221013;1265;22534;-57
2022/01/31 20:55:17;;;;;;;41.50;18.60;;;22.10;62.50;;;;;;220953;1265;25327;-59
2022/01/31 21:00:23;;;;;;;37.10;19.00;;;22.00;62.10;;;;;;221268;1264;22547;-58
2022/01/31 21:05:28;;;;;;;40.60;18.40;;;22.00;61.50;;;;;;221282;1265;22551;-57
2022/01/31 21:10:34;;;;;;;34.30;16.80;;;21.90;61.00;;;;;;221006;1265;24227;-66
2022/01/31 21:15:39;;;;;;;37.20;17.40;;;21.80;61.70;;;;;;221552;1265;22586;-56
2022/01/31 21:20:49;;;;;;;37.70;16.70;;;21.80;61.90;;;;;;221329;1263;25286;-60
2022/01/31 21:26:03;;;;;;;33.10;16.60;;;21.80;61.60;;;;;;221408;1265;22570;-57
2022/01/31 21:31:09;;;;;;;33.40;15.40;;;21.80;60.80;;;;;;221153;1265;22561;-58
2022/01/31 21:36:15;;;;;;;33.40;16.80;;;21.90;60.80;;;;;;221104;1265;22556;-61
2022/01/31 21:41:20;;;;;;;36.80;16.20;;;22.00;60.60;;;;;;221381;1265;22701;-59
2022/01/31 21:46:31;;;;;;;32.20;16.00;;;21.90;60.70;;;;;;221415;1265;24300;-56
2022/01/31 21:51:37;;;;;;;31.80;15.30;;;22.00;60.80;;;;;;221140;1265;22661;-57
2022/01/31 21:56:43;;;;;;;30.10;14.80;;;22.00;60.70;;;;;;221235;1265;22573;-59
2022/01/31 22:01:47;;;;;;;35.10;16.00;;;22.00;60.60;;;;;;221474;1265;22604;-58
2022/01/31 22:06:51;;;;;;;31.90;15.40;;;22.00;62.60;;;;;;221488;1264;24797;-58
2022/01/31 22:12:01;;;;;;;26.80;14.60;;;22.00;62.10;;;;;;221085;1267;24296;-57
2022/01/31 22:17:06;;;;;;;34.90;15.50;;;22.00;61.90;;;;;;221126;1265;25183;-58
2022/01/31 22:22:09;;;;;;;30.00;15.50;;;22.10;62.00;;;;;;221198;1265;25189;-56
2022/01/31 22:27:17;;;;;;;32.20;16.60;;;22.20;62.20;;;;;;221230;1265;24180;-58
2022/01/31 22:32:20;;;;;;;32.10;15.10;;;22.30;61.70;;;;;;221302;1267;22556;-57
2022/01/31 22:37:44;;;;;;;29.00;16.70;;;22.40;61.70;;;;;;220169;1265;24103;-58
2022/01/31 22:42:48;;;;;;;28.70;15.30;;;22.30;61.30;;;;;;221037;1267;22561;-60
2022/01/31 22:47:51;;;;;;;29.80;15.10;;;22.50;62.10;;;;;;220895;1265;22599;-59
2022/01/31 22:52:55;;;;;;;30.40;17.60;;;22.60;61.70;;;;;;221062;1262;25471;-57
2022/01/31 22:57:59;;;;;;;25.70;14.50;;;22.50;61.50;;;;;;220735;1265;22719;-58
2022/01/31 23:03:03;;;;;;;27.70;14.40;;;22.50;62.00;;;;;;220924;1265;25728;-56
2022/01/31 23:08:07;;;;;;;28.90;14.30;;;22.50;62.30;;;;;;220920;1263;25526;-58
2022/01/31 23:13:11;;;;;;;34.50;14.70;;;22.50;62.10;;;;;;221162;1262;25412;-58
2022/01/31 23:19:30;;;;;;;27.30;15.10;;;22.70;62.20;;;;;;220942;1262;22824;-58
